sensor_id;sensor_type;location;lat;lon;timestamp;pressure;altitude;pressure_sealevel;temperature;humidity
4024;BME280;2026;51.002;13.668;2023-07-13T00:00:10;61317.47;;;-144.62;100.00
4024;BME280;2026;51.002;13.668;2023-07-13T00:05:17;61317.47;;;-144.62;100.00
4024;BME280;2026;51.002;13.668;2023-07-13T00:10:21;61317.47;;;-144.62;100.00
4024;BME280;2026;51.002;13.668;2023-07-13T00:15:26;61317.47;;;-144.62;100.00
4024;BME280;2026;51.002;13.668;2023-07-13T00:20:33;61317.47;;;-144.62;100.00
4024;BME280;2026;51.002;13.668;2023-07-13T00:25:36;61317.47;;;-144.62;100.00
4024;BME280;2026;51.002;13.668;2023-07-13T00:30:38;61317.47;;;-144.62;100.00
4024;BME280;2026;51.002;13.668;2023-07-13T00:35:43;61317.47;;;-144.62;100.00
4024;BME280;2026;51.002;13.668;2023-07-13T00:40:46;61317.47;;;-144.62;100.00
4024;BME280;2026;51.002;13.668;2023-07-13T00:46:13;61317.47;;;-144.62;100.00
4024;BME280;2026;51.002;13.668;2023-07-13T00:51:22;61317.47;;;-144.62;100.00
4024;BME280;2026;51.002;13.668;2023-07-13T00:56:26;61317.47;;;-144.62;100.00
4024;BME280;2026;51.002;13.668;2023-07-13T01:01:30;61317.47;;;-144.62;100.00
4024;BME280;2026;51.002;13.668;2023-07-13T01:06:37;61317.47;;;-144.62;100.00
4024;BME280;2026;51.002;13.668;2023-07-13T01:11:42;61317.47;;;-144.62;100.00
4024;BME280;2026;51.002;13.668;2023-07-13T01:16:47;61317.47;;;-144.62;100.00
4024;BME280;2026;51.002;13.668;2023-07-13T01:21:52;61317.47;;;-144.62;100.00
4024;BME280;2026;51.002;13.668;2023-07-13T01:26:55;61317.47;;;-144.62;100.00
4024;BME280;2026;51.002;13.668;2023-07-13T01:31:59;61317.47;;;-144.62;100.00
4024;BME280;2026;51.002;13.668;2023-07-13T01:37:04;61317.47;;;-144.62;100.00
4024;BME280;2026;51.002;13.668;2023-07-13T01:42:08;61317.47;;;-144.62;100.00
4024;BME280;2026;51.002;13.668;2023-07-13T01:47:11;61317.47;;;-144.62;100.00
4024;BME280;2026;51.002;13.668;2023-07-13T01:52:15;61317.47;;;-144.62;100.00
4024;BME280;2026;51.002;13.668;2023-07-13T01:57:18;61317.47;;;-144.62;100.00
4024;BME280;2026;51.002;13.668;2023-07-13T02:02:21;61317.47;;;-144.62;100.00
4024;BME280;2026;51.002;13.668;2023-07-13T02:07:25;61317.47;;;-144.62;100.00
4024;BME280;2026;51.002;13.668;2023-07-13T02:12:28;61317.47;;;-144.62;100.00
4024;BME280;2026;51.002;13.668;2023-07-13T02:17:31;61317.47;;;-144.62;100.00
4024;BME280;2026;51.002;13.668;2023-07-13T02:22:36;61317.47;;;-144.62;100.00
4024;BME280;2026;51.002;13.668;2023-07-13T02:27:39;61317.47;;;-144.62;100.00
4024;BME280;2026;51.002;13.668;2023-07-13T02:32:43;61317.47;;;-144.62;100.00
4024;BME280;2026;51.002;13.668;2023-07-13T02:37:48;61317.47;;;-144.62;100.00
4024;BME280;2026;51.002;13.668;2023-07-13T02:42:51;61317.47;;;-144.62;100.00
4024;BME280;2026;51.002;13.668;2023-07-13T02:47:54;61317.47;;;-144.62;100.00
4024;BME280;2026;51.002;13.668;2023-07-13T02:52:58;61317.47;;;-144.62;100.00
4024;BME280;2026;51.002;13.668;2023-07-13T02:58:01;61317.47;;;-144.62;100.00
4024;BME280;2026;51.002;13.668;2023-07-13T03:03:04;61317.47;;;-144.62;100.00
4024;BME280;2026;51.002;13.668;2023-07-13T03:08:08;61317.47;;;-144.62;100.00
4024;BME280;2026;51.002;13.668;2023-07-13T03:13:12;61317.47;;;-144.62;100.00
4024;BME280;2026;51.002;13.668;2023-07-13T03:18:15;61317.47;;;-144.62;100.00
4024;BME280;2026;51.002;13.668;2023-07-13T03:23:21;61317.47;;;-144.62;100.00
4024;BME280;2026;51.002;13.668;2023-07-13T03:28:24;61317.47;;;-144.62;100.00
4024;BME280;2026;51.002;13.668;2023-07-13T03:33:27;61317.47;;;-144.62;100.00
4024;BME280;2026;51.002;13.668;2023-07-13T03:38:33;61317.47;;;-144.62;100.00
4024;BME280;2026;51.002;13.668;2023-07-13T03:43:37;61317.47;;;-144.62;100.00
4024;BME280;2026;51.002;13.668;2023-07-13T03:48:41;61317.47;;;-144.62;100.00
4024;BME280;2026;51.002;13.668;2023-07-13T03:53:48;61317.47;;;-144.62;100.00
4024;BME280;2026;51.002;13.668;2023-07-13T03:58:53;61317.47;;;-144.62;100.00
4024;BME280;2026;51.002;13.668;2023-07-13T04:03:56;61317.47;;;-144.62;100.00
4024;BME280;2026;51.002;13.668;2023-07-13T04:09:06;61317.47;;;-144.62;100.00
4024;BME280;2026;51.002;13.668;2023-07-13T04:14:10;61317.47;;;-144.62;100.00
4024;BME280;2026;51.002;13.668;2023-07-13T04:19:13;61317.47;;;-144.62;100.00
4024;BME280;2026;51.002;13.668;2023-07-13T04:24:18;61317.47;;;-144.62;100.00
4024;BME280;2026;51.002;13.668;2023-07-13T04:29:21;61317.47;;;-144.62;100.00
4024;BME280;2026;51.002;13.668;2023-07-13T04:34:24;61317.47;;;-144.62;100.00
4024;BME280;2026;51.002;13.668;2023-07-13T04:39:28;61317.47;;;-144.62;100.00
4024;BME280;2026;51.002;13.668;2023-07-13T04:44:31;61317.47;;;-144.62;100.00
4024;BME280;2026;51.002;13.668;2023-07-13T04:49:34;61317.47;;;-144.62;100.00
4024;BME280;2026;51.002;13.668;2023-07-13T04:54:38;61317.47;;;-144.62;100.00
4024;BME280;2026;51.002;13.668;2023-07-13T04:59:41;61317.47;;;-144.62;100.00
4024;BME280;2026;51.002;13.668;2023-07-13T05:04:46;61317.47;;;-144.62;100.00
4024;BME280;2026;51.002;13.668;2023-07-13T05:09:51;61317.47;;;-144.62;100.00
4024;BME280;2026;51.002;13.668;2023-07-13T05:14:54;61317.47;;;-144.62;100.00
4024;BME280;2026;51.002;13.668;2023-07-13T05:19:57;61317.47;;;-144.62;100.00
4024;BME280;2026;51.002;13.668;2023-07-13T05:25:01;61317.47;;;-144.62;100.00
4024;BME280;2026;51.002;13.668;2023-07-13T05:30:06;61317.47;;;-144.62;100.00
4024;BME280;2026;51.002;13.668;2023-07-13T05:35:12;61317.47;;;-144.62;100.00
4024;BME280;2026;51.002;13.668;2023-07-13T05:40:16;61317.47;;;-144.62;100.00
4024;BME280;2026;51.002;13.668;2023-07-13T05:45:19;61317.47;;;-144.62;100.00
4024;BME280;2026;51.002;13.668;2023-07-13T05:50:22;61317.47;;;-144.62;100.00
4024;BME280;2026;51.002;13.668;2023-07-13T05:55:27;61317.47;;;-144.62;100.00
4024;BME280;2026;51.002;13.668;2023-07-13T06:00:29;61317.47;;;-144.62;100.00
4024;BME280;2026;51.002;13.668;2023-07-13T06:05:33;61317.47;;;-144.62;100.00
4024;BME280;2026;51.002;13.668;2023-07-13T06:10:37;61317.47;;;-144.62;100.00
4024;BME280;2026;51.002;13.668;2023-07-13T06:15:40;61317.47;;;-144.62;100.00
4024;BME280;2026;51.002;13.668;2023-07-13T06:20:43;61317.47;;;-144.62;100.00
4024;BME280;2026;51.002;13.668;2023-07-13T06:25:48;61317.47;;;-144.62;100.00
4024;BME280;2026;51.002;13.668;2023-07-13T06:30:50;61317.47;;;-144.62;100.00
4024;BME280;2026;51.002;13.668;2023-07-13T06:35:54;61317.47;;;-144.62;100.00
4024;BME280;2026;51.002;13.668;2023-07-13T06:40:58;61317.47;;;-144.62;100.00
4024;BME280;2026;51.002;13.668;2023-07-13T06:46:01;61317.47;;;-144.62;100.00
4024;BME280;2026;51.002;13.668;2023-07-13T06:51:04;61317.47;;;-144.62;100.00
4024;BME280;2026;51.002;13.668;2023-07-13T06:56:09;61317.47;;;-144.62;100.00
4024;BME280;2026;51.002;13.668;2023-07-13T07:01:12;61317.47;;;-144.62;100.00
4024;BME280;2026;51.002;13.668;2023-07-13T07:06:17;61317.47;;;-144.62;100.00
4024;BME280;2026;51.002;13.668;2023-07-13T07:11:24;61317.47;;;-144.62;100.00
4024;BME280;2026;51.002;13.668;2023-07-13T07:16:28;61317.47;;;-144.62;100.00
4024;BME280;2026;51.002;13.668;2023-07-13T07:21:31;61317.47;;;-144.62;100.00
4024;BME280;2026;51.002;13.668;2023-07-13T07:26:35;61317.47;;;-144.62;100.00
4024;BME280;2026;51.002;13.668;2023-07-13T07:31:58;61317.47;;;-144.62;100.00
4024;BME280;2026;51.002;13.668;2023-07-13T07:37:11;61317.47;;;-144.62;100.00
4024;BME280;2026;51.002;13.668;2023-07-13T07:42:18;61317.47;;;-144.62;100.00
4024;BME280;2026;51.002;13.668;2023-07-13T07:47:21;61317.47;;;-144.62;100.00
4024;BME280;2026;51.002;13.668;2023-07-13T07:52:25;61317.47;;;-144.62;100.00
4024;BME280;2026;51.002;13.668;2023-07-13T07:57:30;61317.47;;;-144.62;100.00
4024;BME280;2026;51.002;13.668;2023-07-13T08:02:53;61317.47;;;-144.62;100.00
4024;BME280;2026;51.002;13.668;2023-07-13T08:07:59;61317.47;;;-144.62;100.00
4024;BME280;2026;51.002;13.668;2023-07-13T08:13:03;61317.47;;;-144.62;100.00
4024;BME280;2026;51.002;13.668;2023-07-13T08:18:09;61317.47;;;-144.62;100.00
4024;BME280;2026;51.002;13.668;2023-07-13T08:23:12;61317.47;;;-144.62;100.00
4024;BME280;2026;51.002;13.668;2023-07-13T08:28:16;61317.47;;;-144.62;100.00
4024;BME280;2026;51.002;13.668;2023-07-13T08:33:21;61317.47;;;-144.62;100.00
4024;BME280;2026;51.002;13.668;2023-07-13T08:38:25;61317.47;;;-144.62;100.00
4024;BME280;2026;51.002;13.668;2023-07-13T08:43:31;61317.47;;;-144.62;100.00
4024;BME280;2026;51.002;13.668;2023-07-13T08:48:41;61317.47;;;-144.62;100.00
4024;BME280;2026;51.002;13.668;2023-07-13T08:53:48;61317.47;;;-144.62;100.00
4024;BME280;2026;51.002;13.668;2023-07-13T08:58:56;61317.47;;;-144.62;100.00
4024;BME280;2026;51.002;13.668;2023-07-13T09:04:09;61317.47;;;-144.62;100.00
4024;BME280;2026;51.002;13.668;2023-07-13T09:09:20;61317.47;;;-144.62;100.00
4024;BME280;2026;51.002;13.668;2023-07-13T09:14:41;61317.47;;;-144.62;100.00
4024;BME280;2026;51.002;13.668;2023-07-13T09:20:48;98970.97;;;26.85;38.05
4024;BME280;2026;51.002;13.668;2023-07-13T09:25:54;98976.81;;;25.99;39.10
4024;BME280;2026;51.002;13.668;2023-07-13T09:31:03;98975.66;;;26.25;39.98
4024;BME280;2026;51.002;13.668;2023-07-13T09:36:27;98981.59;;;27.94;39.63
4024;BME280;2026;51.002;13.668;2023-07-13T09:41:36;98993.97;;;28.83;36.95
4024;BME280;2026;51.002;13.668;2023-07-13T09:46:45;99000.13;;;25.96;40.62
4024;BME280;2026;51.002;13.668;2023-07-13T09:51:58;99001.66;;;28.12;38.78
4024;BME280;2026;51.002;13.668;2023-07-13T09:57:03;99002.06;;;26.32;39.15
4024;BME280;2026;51.002;13.668;2023-07-13T10:02:22;98997.44;;;29.07;36.07
4024;BME280;2026;51.002;13.668;2023-07-13T10:07:27;98999.53;;;27.91;38.04
4024;BME280;2026;51.002;13.668;2023-07-13T10:12:36;98994.00;;;27.79;39.19
4024;BME280;2026;51.002;13.668;2023-07-13T10:17:39;99001.41;;;29.11;37.78
4024;BME280;2026;51.002;13.668;2023-07-13T10:22:50;99004.69;;;28.51;35.88
4024;BME280;2026;51.002;13.668;2023-07-13T10:27:58;99005.81;;;27.63;38.51
4024;BME280;2026;51.002;13.668;2023-07-13T10:33:08;99000.81;;;27.18;37.89
4024;BME280;2026;51.002;13.668;2023-07-13T10:38:18;98992.06;;;28.43;36.09
4024;BME280;2026;51.002;13.668;2023-07-13T10:43:26;98991.06;;;29.57;35.51
4024;BME280;2026;51.002;13.668;2023-07-13T10:48:31;98987.19;;;29.58;36.51
4024;BME280;2026;51.002;13.668;2023-07-13T10:53:39;98989.88;;;29.86;35.80
4024;BME280;2026;51.002;13.668;2023-07-13T10:58:43;98975.47;;;29.51;33.95
4024;BME280;2026;51.002;13.668;2023-07-13T11:03:49;98989.25;;;28.55;34.96
4024;BME280;2026;51.002;13.668;2023-07-13T11:08:55;98990.28;;;29.78;34.48
4024;BME280;2026;51.002;13.668;2023-07-13T11:14:00;98989.69;;;28.92;32.62
4024;BME280;2026;51.002;13.668;2023-07-13T11:19:37;98992.41;;;29.54;33.65
4024;BME280;2026;51.002;13.668;2023-07-13T11:25:02;98984.81;;;29.83;33.91
4024;BME280;2026;51.002;13.668;2023-07-13T11:30:31;98974.28;;;30.46;34.06
4024;BME280;2026;51.002;13.668;2023-07-13T11:35:36;98976.44;;;31.19;32.77
4024;BME280;2026;51.002;13.668;2023-07-13T11:40:44;98983.41;;;27.88;36.68
4024;BME280;2026;51.002;13.668;2023-07-13T11:45:56;98986.34;;;28.33;37.34
4024;BME280;2026;51.002;13.668;2023-07-13T11:51:03;98980.69;;;29.47;37.00
4024;BME280;2026;51.002;13.668;2023-07-13T11:56:08;98975.16;;;29.86;35.16
4024;BME280;2026;51.002;13.668;2023-07-13T12:01:18;98980.41;;;30.04;33.30
4024;BME280;2026;51.002;13.668;2023-07-13T12:06:27;98967.28;;;28.20;34.75
4024;BME280;2026;51.002;13.668;2023-07-13T12:11:35;98969.22;;;28.08;35.32
4024;BME280;2026;51.002;13.668;2023-07-13T12:16:43;98962.09;;;28.81;36.09
4024;BME280;2026;51.002;13.668;2023-07-13T12:21:47;98964.66;;;27.90;36.34
4024;BME280;2026;51.002;13.668;2023-07-13T12:26:53;98962.44;;;28.27;34.79
4024;BME280;2026;51.002;13.668;2023-07-13T12:31:57;98959.44;;;28.45;36.13
4024;BME280;2026;51.002;13.668;2023-07-13T12:37:01;98955.03;;;29.23;34.61
4024;BME280;2026;51.002;13.668;2023-07-13T12:42:20;98966.53;;;28.53;34.25
4024;BME280;2026;51.002;13.668;2023-07-13T12:47:28;98961.00;;;29.65;34.61
4024;BME280;2026;51.002;13.668;2023-07-13T12:52:33;98965.44;;;28.54;32.93
4024;BME280;2026;51.002;13.668;2023-07-13T12:57:49;98952.69;;;28.98;34.10
4024;BME280;2026;51.002;13.668;2023-07-13T13:02:56;98959.75;;;29.56;33.37
4024;BME280;2026;51.002;13.668;2023-07-13T13:08:16;98961.03;;;29.49;31.71
4024;BME280;2026;51.002;13.668;2023-07-13T13:13:21;98957.16;;;29.16;32.73
4024;BME280;2026;51.002;13.668;2023-07-13T13:18:24;98946.06;;;28.54;32.57
4024;BME280;2026;51.002;13.668;2023-07-13T13:23:27;98953.81;;;28.12;32.06
4024;BME280;2026;51.002;13.668;2023-07-13T13:28:32;98957.69;;;28.68;32.52
4024;BME280;2026;51.002;13.668;2023-07-13T13:33:35;98953.50;;;28.65;31.66
4024;BME280;2026;51.002;13.668;2023-07-13T13:38:38;98951.88;;;29.15;32.99
4024;BME280;2026;51.002;13.668;2023-07-13T13:43:43;98947.56;;;29.57;32.44
4024;BME280;2026;51.002;13.668;2023-07-13T13:48:47;98967.06;;;29.29;30.84
4024;BME280;2026;51.002;13.668;2023-07-13T13:53:51;98967.47;;;28.59;32.39
4024;BME280;2026;51.002;13.668;2023-07-13T13:58:56;98956.28;;;27.50;33.85
4024;BME280;2026;51.002;13.668;2023-07-13T14:03:59;98958.56;;;28.85;32.54
4024;BME280;2026;51.002;13.668;2023-07-13T14:09:02;98958.88;;;28.03;32.48
4024;BME280;2026;51.002;13.668;2023-07-13T14:14:09;98952.25;;;28.73;33.73
4024;BME280;2026;51.002;13.668;2023-07-13T14:19:14;98956.03;;;29.00;31.94
4024;BME280;2026;51.002;13.668;2023-07-13T14:24:17;98957.34;;;29.10;32.51
4024;BME280;2026;51.002;13.668;2023-07-13T14:29:22;98950.63;;;29.39;32.23
4024;BME280;2026;51.002;13.668;2023-07-13T14:34:25;98937.31;;;29.58;32.60
4024;BME280;2026;51.002;13.668;2023-07-13T14:39:28;98950.78;;;29.32;32.08
4024;BME280;2026;51.002;13.668;2023-07-13T14:44:33;98953.53;;;29.16;31.49
4024;BME280;2026;51.002;13.668;2023-07-13T14:49:37;98949.34;;;28.11;32.63
4024;BME280;2026;51.002;13.668;2023-07-13T14:54:41;98947.16;;;28.53;33.62
4024;BME280;2026;51.002;13.668;2023-07-13T14:59:47;98951.06;;;28.69;33.13
4024;BME280;2026;51.002;13.668;2023-07-13T15:04:50;98946.88;;;27.86;32.32
4024;BME280;2026;51.002;13.668;2023-07-13T15:09:53;98950.47;;;27.86;32.29
4024;BME280;2026;51.002;13.668;2023-07-13T15:14:57;98943.50;;;27.96;31.89
4024;BME280;2026;51.002;13.668;2023-07-13T15:20:00;98951.84;;;28.81;31.16
4024;BME280;2026;51.002;13.668;2023-07-13T15:25:17;98953.31;;;28.43;30.92
4024;BME280;2026;51.002;13.668;2023-07-13T15:30:24;98953.91;;;28.45;30.23
4024;BME280;2026;51.002;13.668;2023-07-13T15:35:28;98955.22;;;28.55;30.02
4024;BME280;2026;51.002;13.668;2023-07-13T15:40:31;98948.06;;;29.04;30.74
4024;BME280;2026;51.002;13.668;2023-07-13T15:45:36;98958.59;;;28.45;29.78
4024;BME280;2026;51.002;13.668;2023-07-13T15:50:42;98958.50;;;28.80;30.13
4024;BME280;2026;51.002;13.668;2023-07-13T15:55:46;98959.66;;;28.84;30.54
4024;BME280;2026;51.002;13.668;2023-07-13T16:00:51;98962.09;;;28.81;28.65
4024;BME280;2026;51.002;13.668;2023-07-13T16:05:55;98955.25;;;28.71;29.81
4024;BME280;2026;51.002;13.668;2023-07-13T16:10:59;98945.84;;;27.52;29.89
4024;BME280;2026;51.002;13.668;2023-07-13T16:16:08;98956.22;;;28.08;29.07
4024;BME280;2026;51.002;13.668;2023-07-13T16:21:13;98959.16;;;27.55;30.37
4024;BME280;2026;51.002;13.668;2023-07-13T16:26:28;98954.84;;;27.59;29.32
4024;BME280;2026;51.002;13.668;2023-07-13T16:31:36;98976.66;;;27.96;29.32
4024;BME280;2026;51.002;13.668;2023-07-13T16:36:39;98975.25;;;27.93;29.93
4024;BME280;2026;51.002;13.668;2023-07-13T16:41:42;98985.81;;;28.48;29.00
4024;BME280;2026;51.002;13.668;2023-07-13T16:46:48;98985.13;;;27.42;29.85
4024;BME280;2026;51.002;13.668;2023-07-13T16:51:52;98987.59;;;27.20;30.12
4024;BME280;2026;51.002;13.668;2023-07-13T16:56:55;98986.44;;;27.40;31.32
4024;BME280;2026;51.002;13.668;2023-07-13T17:02:01;98998.22;;;27.59;29.90
4024;BME280;2026;51.002;13.668;2023-07-13T17:07:09;99003.84;;;27.52;31.12
4024;BME280;2026;51.002;13.668;2023-07-13T17:12:12;98997.50;;;27.40;30.78
4024;BME280;2026;51.002;13.668;2023-07-13T17:17:18;99003.19;;;27.27;30.76
4024;BME280;2026;51.002;13.668;2023-07-13T17:22:23;99010.72;;;27.38;30.31
4024;BME280;2026;51.002;13.668;2023-07-13T17:27:30;99014.06;;;27.40;30.51
4024;BME280;2026;51.002;13.668;2023-07-13T17:32:36;99008.06;;;27.43;31.28
4024;BME280;2026;51.002;13.668;2023-07-13T17:37:39;99008.50;;;27.28;31.12
4024;BME280;2026;51.002;13.668;2023-07-13T17:42:42;99008.66;;;26.80;31.34
4024;BME280;2026;51.002;13.668;2023-07-13T17:47:46;99015.44;;;27.07;31.65
4024;BME280;2026;51.002;13.668;2023-07-13T17:52:51;99011.22;;;27.05;32.12
4024;BME280;2026;51.002;13.668;2023-07-13T17:57:54;99023.13;;;27.05;31.63
4024;BME280;2026;51.002;13.668;2023-07-13T18:03:00;99021.97;;;26.83;31.78
4024;BME280;2026;51.002;13.668;2023-07-13T18:08:05;99029.09;;;26.72;32.34
4024;BME280;2026;51.002;13.668;2023-07-13T18:13:09;99032.09;;;26.04;31.86
4024;BME280;2026;51.002;13.668;2023-07-13T18:18:14;99038.13;;;26.13;32.08
4024;BME280;2026;51.002;13.668;2023-07-13T18:23:20;99042.97;;;25.99;32.38
4024;BME280;2026;51.002;13.668;2023-07-13T18:28:23;99046.38;;;25.94;32.55
4024;BME280;2026;51.002;13.668;2023-07-13T18:33:31;99052.03;;;25.81;33.04
4024;BME280;2026;51.002;13.668;2023-07-13T18:38:35;99054.91;;;25.68;33.34
4024;BME280;2026;51.002;13.668;2023-07-13T18:43:39;99049.47;;;25.61;33.73
4024;BME280;2026;51.002;13.668;2023-07-13T18:48:43;99054.47;;;25.46;34.96
4024;BME280;2026;51.002;13.668;2023-07-13T18:53:48;99064.72;;;25.39;35.92
4024;BME280;2026;51.002;13.668;2023-07-13T18:58:51;99077.31;;;25.22;35.64
4024;BME280;2026;51.002;13.668;2023-07-13T19:03:56;99081.91;;;25.03;36.59
4024;BME280;2026;51.002;13.668;2023-07-13T19:08:59;99085.38;;;24.85;36.92
4024;BME280;2026;51.002;13.668;2023-07-13T19:14:02;99094.56;;;24.72;37.81
4024;BME280;2026;51.002;13.668;2023-07-13T19:19:12;99105.81;;;24.58;39.54
4024;BME280;2026;51.002;13.668;2023-07-13T19:24:20;99110.31;;;24.39;40.23
4024;BME280;2026;51.002;13.668;2023-07-13T19:29:25;99111.44;;;24.11;40.50
4024;BME280;2026;51.002;13.668;2023-07-13T19:34:31;99120.59;;;23.92;41.73
4024;BME280;2026;51.002;13.668;2023-07-13T19:39:37;99124.59;;;23.96;42.34
4024;BME280;2026;51.002;13.668;2023-07-13T19:44:41;99134.53;;;23.84;43.54
4024;BME280;2026;51.002;13.668;2023-07-13T19:49:46;99140.00;;;23.71;43.87
4024;BME280;2026;51.002;13.668;2023-07-13T19:54:50;99143.19;;;23.61;43.89
4024;BME280;2026;51.002;13.668;2023-07-13T19:59:54;99142.09;;;23.49;44.23
4024;BME280;2026;51.002;13.668;2023-07-13T20:05:00;99157.31;;;23.32;45.06
4024;BME280;2026;51.002;13.668;2023-07-13T20:10:17;99155.16;;;23.20;45.99
4024;BME280;2026;51.002;13.668;2023-07-13T20:15:21;99157.66;;;23.09;46.14
4024;BME280;2026;51.002;13.668;2023-07-13T20:20:31;99163.06;;;22.89;46.74
4024;BME280;2026;51.002;13.668;2023-07-13T20:25:35;99180.56;;;22.88;47.75
4024;BME280;2026;51.002;13.668;2023-07-13T20:30:40;99183.41;;;22.67;48.16
4024;BME280;2026;51.002;13.668;2023-07-13T20:35:48;99185.44;;;22.45;49.19
4024;BME280;2026;51.002;13.668;2023-07-13T20:40:51;99180.72;;;22.39;49.50
4024;BME280;2026;51.002;13.668;2023-07-13T20:45:56;99190.78;;;22.25;51.03
4024;BME280;2026;51.002;13.668;2023-07-13T20:51:01;99201.28;;;22.21;50.86
4024;BME280;2026;51.002;13.668;2023-07-13T20:56:11;99191.53;;;22.12;50.72
4024;BME280;2026;51.002;13.668;2023-07-13T21:01:16;99198.91;;;22.12;50.52
4024;BME280;2026;51.002;13.668;2023-07-13T21:06:22;99208.50;;;22.01;50.96
4024;BME280;2026;51.002;13.668;2023-07-13T21:11:25;99208.88;;;21.98;50.71
4024;BME280;2026;51.002;13.668;2023-07-13T21:16:28;99217.66;;;21.87;52.04
4024;BME280;2026;51.002;13.668;2023-07-13T21:21:33;99227.00;;;21.35;53.86
4024;BME280;2026;51.002;13.668;2023-07-13T21:26:36;99244.81;;;21.24;54.20
4024;BME280;2026;51.002;13.668;2023-07-13T21:31:39;99255.31;;;21.42;52.97
4024;BME280;2026;51.002;13.668;2023-07-13T21:36:44;99258.34;;;21.32;52.76
4024;BME280;2026;51.002;13.668;2023-07-13T21:41:48;99263.56;;;21.27;51.76
4024;BME280;2026;51.002;13.668;2023-07-13T21:46:51;99275.50;;;21.56;50.26
4024;BME280;2026;51.002;13.668;2023-07-13T21:51:56;99283.59;;;21.49;50.22
4024;BME280;2026;51.002;13.668;2023-07-13T21:56:59;99287.19;;;21.50;50.29
4024;BME280;2026;51.002;13.668;2023-07-13T22:02:02;99294.00;;;21.39;50.79
4024;BME280;2026;51.002;13.668;2023-07-13T22:07:09;99295.53;;;21.27;50.89
4024;BME280;2026;51.002;13.668;2023-07-13T22:12:12;99296.28;;;21.35;50.16
4024;BME280;2026;51.002;13.668;2023-07-13T22:17:15;99297.03;;;21.44;50.76
4024;BME280;2026;51.002;13.668;2023-07-13T22:22:22;99301.84;;;21.27;50.83
4024;BME280;2026;51.002;13.668;2023-07-13T22:27:25;99305.38;;;21.06;51.67
4024;BME280;2026;51.002;13.668;2023-07-13T22:32:30;99305.00;;;21.09;52.39
4024;BME280;2026;51.002;13.668;2023-07-13T22:37:35;99307.06;;;20.93;53.63
4024;BME280;2026;51.002;13.668;2023-07-13T22:42:38;99307.38;;;20.83;53.67
4024;BME280;2026;51.002;13.668;2023-07-13T22:47:41;99309.44;;;20.81;53.39
4024;BME280;2026;51.002;13.668;2023-07-13T22:52:45;99314.25;;;20.79;52.67
4024;BME280;2026;51.002;13.668;2023-07-13T22:57:48;99320.00;;;20.84;52.42
4024;BME280;2026;51.002;13.668;2023-07-13T23:02:52;99312.34;;;20.94;51.84
4024;BME280;2026;51.002;13.668;2023-07-13T23:07:56;99314.06;;;20.95;52.06
4024;BME280;2026;51.002;13.668;2023-07-13T23:13:00;99316.13;;;20.78;53.53
4024;BME280;2026;51.002;13.668;2023-07-13T23:18:05;99315.28;;;20.78;54.91
4024;BME280;2026;51.002;13.668;2023-07-13T23:23:14;99314.91;;;20.81;54.66
4024;BME280;2026;51.002;13.668;2023-07-13T23:28:17;99317.84;;;20.79;55.11
4024;BME280;2026;51.002;13.668;2023-07-13T23:33:24;99320.06;;;20.61;56.42
4024;BME280;2026;51.002;13.668;2023-07-13T23:38:30;99314.31;;;20.56;57.88
4024;BME280;2026;51.002;13.668;2023-07-13T23:43:33;99307.41;;;20.45;57.29
4024;BME280;2026;51.002;13.668;2023-07-13T23:48:36;99316.69;;;20.36;57.43
4024;BME280;2026;51.002;13.668;2023-07-13T23:53:40;99332.59;;;20.18;58.14
4024;BME280;2026;51.002;13.668;2023-07-13T23:58:43;99331.28;;;20.14;58.36
